sensor_id;sensor_type;location;lat;lon;timestamp;P1;durP1;ratioP1;P2;durP2;ratioP2
8050;SDS011;4068;42.158;24.732;2023-05-07T00:00:08;7.72;;;6.85;;
8050;SDS011;4068;42.158;24.732;2023-05-07T00:02:34;10.48;;;6.90;;
8050;SDS011;4068;42.158;24.732;2023-05-07T00:05:00;13.02;;;7.22;;
8050;SDS011;4068;42.158;24.732;2023-05-07T00:07:27;9.55;;;6.97;;
8050;SDS011;4068;42.158;24.732;2023-05-07T00:09:53;11.35;;;6.97;;
8050;SDS011;4068;42.158;24.732;2023-05-07T00:12:18;9.23;;;6.75;;
8050;SDS011;4068;42.158;24.732;2023-05-07T00:14:44;9.23;;;7.20;;
8050;SDS011;4068;42.158;24.732;2023-05-07T00:17:10;11.05;;;7.15;;
8050;SDS011;4068;42.158;24.732;2023-05-07T00:19:35;12.10;;;7.10;;
8050;SDS011;4068;42.158;24.732;2023-05-07T00:22:01;9.63;;;6.88;;
8050;SDS011;4068;42.158;24.732;2023-05-07T00:24:26;10.77;;;7.60;;
8050;SDS011;4068;42.158;24.732;2023-05-07T00:26:52;8.35;;;7.25;;
8050;SDS011;4068;42.158;24.732;2023-05-07T00:29:17;11.13;;;7.20;;
8050;SDS011;4068;42.158;24.732;2023-05-07T00:31:43;11.65;;;7.18;;
8050;SDS011;4068;42.158;24.732;2023-05-07T00:34:08;7.32;;;6.53;;
8050;SDS011;4068;42.158;24.732;2023-05-07T00:36:34;8.30;;;7.15;;
8050;SDS011;4068;42.158;24.732;2023-05-07T00:39:00;10.43;;;6.80;;
8050;SDS011;4068;42.158;24.732;2023-05-07T00:41:28;9.57;;;7.25;;
8050;SDS011;4068;42.158;24.732;2023-05-07T00:43:53;7.57;;;6.75;;
8050;SDS011;4068;42.158;24.732;2023-05-07T00:46:20;8.57;;;6.80;;
8050;SDS011;4068;42.158;24.732;2023-05-07T00:48:46;9.15;;;6.75;;
8050;SDS011;4068;42.158;24.732;2023-05-07T00:51:12;11.98;;;7.05;;
8050;SDS011;4068;42.158;24.732;2023-05-07T00:53:38;9.45;;;7.18;;
8050;SDS011;4068;42.158;24.732;2023-05-07T00:56:04;7.82;;;7.03;;
8050;SDS011;4068;42.158;24.732;2023-05-07T00:58:31;9.63;;;7.55;;
8050;SDS011;4068;42.158;24.732;2023-05-07T01:00:58;10.25;;;7.40;;
8050;SDS011;4068;42.158;24.732;2023-05-07T01:03:23;10.20;;;6.90;;
8050;SDS011;4068;42.158;24.732;2023-05-07T01:05:49;10.50;;;7.05;;
8050;SDS011;4068;42.158;24.732;2023-05-07T01:08:15;10.88;;;7.03;;
8050;SDS011;4068;42.158;24.732;2023-05-07T01:10:43;8.52;;;7.18;;
8050;SDS011;4068;42.158;24.732;2023-05-07T01:13:09;8.90;;;7.50;;
8050;SDS011;4068;42.158;24.732;2023-05-07T01:15:37;15.02;;;7.55;;
8050;SDS011;4068;42.158;24.732;2023-05-07T01:18:03;12.20;;;7.22;;
8050;SDS011;4068;42.158;24.732;2023-05-07T01:20:28;10.52;;;7.75;;
8050;SDS011;4068;42.158;24.732;2023-05-07T01:22:54;8.32;;;6.75;;
8050;SDS011;4068;42.158;24.732;2023-05-07T01:25:21;10.57;;;7.50;;
8050;SDS011;4068;42.158;24.732;2023-05-07T01:27:47;10.13;;;7.75;;
8050;SDS011;4068;42.158;24.732;2023-05-07T01:30:13;10.02;;;6.80;;
8050;SDS011;4068;42.158;24.732;2023-05-07T01:32:43;15.18;;;9.98;;
8050;SDS011;4068;42.158;24.732;2023-05-07T01:35:14;12.65;;;8.02;;
8050;SDS011;4068;42.158;24.732;2023-05-07T01:37:43;9.90;;;7.45;;
8050;SDS011;4068;42.158;24.732;2023-05-07T01:40:10;10.90;;;6.82;;
8050;SDS011;4068;42.158;24.732;2023-05-07T01:42:36;7.85;;;7.05;;
8050;SDS011;4068;42.158;24.732;2023-05-07T01:45:01;10.88;;;8.75;;
8050;SDS011;4068;42.158;24.732;2023-05-07T01:47:27;16.15;;;8.93;;
8050;SDS011;4068;42.158;24.732;2023-05-07T01:49:54;16.00;;;9.40;;
8050;SDS011;4068;42.158;24.732;2023-05-07T01:52:20;16.50;;;9.80;;
8050;SDS011;4068;42.158;24.732;2023-05-07T01:54:46;14.60;;;9.75;;
8050;SDS011;4068;42.158;24.732;2023-05-07T01:57:11;9.77;;;7.93;;
8050;SDS011;4068;42.158;24.732;2023-05-07T01:59:37;13.73;;;9.32;;
8050;SDS011;4068;42.158;24.732;2023-05-07T02:02:02;13.50;;;8.68;;
8050;SDS011;4068;42.158;24.732;2023-05-07T02:04:27;10.15;;;8.25;;
8050;SDS011;4068;42.158;24.732;2023-05-07T02:06:53;10.18;;;7.70;;
8050;SDS011;4068;42.158;24.732;2023-05-07T02:09:18;8.93;;;7.93;;
8050;SDS011;4068;42.158;24.732;2023-05-07T02:11:44;10.32;;;7.57;;
8050;SDS011;4068;42.158;24.732;2023-05-07T02:14:10;8.95;;;7.60;;
8050;SDS011;4068;42.158;24.732;2023-05-07T02:16:35;11.10;;;7.53;;
8050;SDS011;4068;42.158;24.732;2023-05-07T02:19:01;8.45;;;7.30;;
8050;SDS011;4068;42.158;24.732;2023-05-07T02:21:26;9.15;;;7.45;;
8050;SDS011;4068;42.158;24.732;2023-05-07T02:23:51;13.88;;;8.48;;
8050;SDS011;4068;42.158;24.732;2023-05-07T02:26:17;12.13;;;8.00;;
8050;SDS011;4068;42.158;24.732;2023-05-07T02:28:43;10.43;;;8.38;;
8050;SDS011;4068;42.158;24.732;2023-05-07T02:31:08;9.27;;;8.27;;
8050;SDS011;4068;42.158;24.732;2023-05-07T02:33:34;12.30;;;9.30;;
8050;SDS011;4068;42.158;24.732;2023-05-07T02:36:07;12.35;;;8.82;;
8050;SDS011;4068;42.158;24.732;2023-05-07T02:38:35;12.35;;;9.57;;
8050;SDS011;4068;42.158;24.732;2023-05-07T02:41:01;17.52;;;11.43;;
8050;SDS011;4068;42.158;24.732;2023-05-07T02:43:27;15.05;;;10.65;;
8050;SDS011;4068;42.158;24.732;2023-05-07T02:46:05;14.95;;;11.18;;
8050;SDS011;4068;42.158;24.732;2023-05-07T02:48:31;14.25;;;10.40;;
8050;SDS011;4068;42.158;24.732;2023-05-07T02:50:58;18.13;;;13.48;;
8050;SDS011;4068;42.158;24.732;2023-05-07T02:53:24;19.50;;;11.23;;
8050;SDS011;4068;42.158;24.732;2023-05-07T02:55:55;20.33;;;13.27;;
8050;SDS011;4068;42.158;24.732;2023-05-07T02:58:24;22.08;;;11.93;;
8050;SDS011;4068;42.158;24.732;2023-05-07T03:00:50;27.85;;;15.30;;
8050;SDS011;4068;42.158;24.732;2023-05-07T03:03:16;19.00;;;13.60;;
8050;SDS011;4068;42.158;24.732;2023-05-07T03:05:42;21.83;;;14.48;;
8050;SDS011;4068;42.158;24.732;2023-05-07T03:08:07;24.75;;;15.40;;
8050;SDS011;4068;42.158;24.732;2023-05-07T03:10:33;24.90;;;15.68;;
8050;SDS011;4068;42.158;24.732;2023-05-07T03:12:59;19.55;;;14.30;;
8050;SDS011;4068;42.158;24.732;2023-05-07T03:15:25;18.23;;;13.68;;
8050;SDS011;4068;42.158;24.732;2023-05-07T03:17:50;20.90;;;14.30;;
8050;SDS011;4068;42.158;24.732;2023-05-07T03:20:16;17.42;;;13.85;;
8050;SDS011;4068;42.158;24.732;2023-05-07T03:22:41;21.98;;;13.70;;
8050;SDS011;4068;42.158;24.732;2023-05-07T03:25:07;17.20;;;12.70;;
8050;SDS011;4068;42.158;24.732;2023-05-07T03:27:33;18.98;;;12.35;;
8050;SDS011;4068;42.158;24.732;2023-05-07T03:29:59;21.08;;;12.23;;
8050;SDS011;4068;42.158;24.732;2023-05-07T03:32:25;15.27;;;11.77;;
8050;SDS011;4068;42.158;24.732;2023-05-07T03:34:50;12.90;;;9.98;;
8050;SDS011;4068;42.158;24.732;2023-05-07T03:37:16;17.60;;;10.27;;
8050;SDS011;4068;42.158;24.732;2023-05-07T03:39:41;13.02;;;9.63;;
8050;SDS011;4068;42.158;24.732;2023-05-07T03:42:07;14.65;;;10.25;;
8050;SDS011;4068;42.158;24.732;2023-05-07T03:44:32;14.38;;;9.93;;
8050;SDS011;4068;42.158;24.732;2023-05-07T03:46:57;14.32;;;9.68;;
8050;SDS011;4068;42.158;24.732;2023-05-07T03:49:23;12.63;;;9.27;;
8050;SDS011;4068;42.158;24.732;2023-05-07T03:51:48;16.40;;;10.13;;
8050;SDS011;4068;42.158;24.732;2023-05-07T03:54:14;13.77;;;9.48;;
8050;SDS011;4068;42.158;24.732;2023-05-07T03:56:39;13.82;;;9.68;;
8050;SDS011;4068;42.158;24.732;2023-05-07T03:59:05;17.13;;;9.55;;
8050;SDS011;4068;42.158;24.732;2023-05-07T04:01:30;11.35;;;9.15;;
8050;SDS011;4068;42.158;24.732;2023-05-07T04:03:55;13.43;;;10.00;;
8050;SDS011;4068;42.158;24.732;2023-05-07T04:06:21;12.98;;;9.65;;
8050;SDS011;4068;42.158;24.732;2023-05-07T04:08:47;11.63;;;8.98;;
8050;SDS011;4068;42.158;24.732;2023-05-07T04:11:12;12.05;;;9.20;;
8050;SDS011;4068;42.158;24.732;2023-05-07T04:13:37;12.73;;;8.98;;
8050;SDS011;4068;42.158;24.732;2023-05-07T04:16:03;12.80;;;9.88;;
8050;SDS011;4068;42.158;24.732;2023-05-07T04:18:30;15.32;;;10.40;;
8050;SDS011;4068;42.158;24.732;2023-05-07T04:20:55;14.82;;;10.15;;
8050;SDS011;4068;42.158;24.732;2023-05-07T04:23:20;13.80;;;10.23;;
8050;SDS011;4068;42.158;24.732;2023-05-07T04:25:46;13.57;;;10.15;;
8050;SDS011;4068;42.158;24.732;2023-05-07T04:28:11;13.85;;;10.40;;
8050;SDS011;4068;42.158;24.732;2023-05-07T04:30:37;11.38;;;9.73;;
8050;SDS011;4068;42.158;24.732;2023-05-07T04:33:03;19.05;;;9.85;;
8050;SDS011;4068;42.158;24.732;2023-05-07T04:35:29;18.77;;;10.20;;
8050;SDS011;4068;42.158;24.732;2023-05-07T04:37:54;12.15;;;9.90;;
8050;SDS011;4068;42.158;24.732;2023-05-07T04:40:20;15.52;;;10.65;;
8050;SDS011;4068;42.158;24.732;2023-05-07T04:42:45;11.88;;;9.23;;
8050;SDS011;4068;42.158;24.732;2023-05-07T04:45:11;12.80;;;10.15;;
8050;SDS011;4068;42.158;24.732;2023-05-07T04:47:37;12.88;;;10.15;;
8050;SDS011;4068;42.158;24.732;2023-05-07T04:50:03;13.48;;;10.48;;
8050;SDS011;4068;42.158;24.732;2023-05-07T04:52:29;13.90;;;9.90;;
8050;SDS011;4068;42.158;24.732;2023-05-07T04:54:54;12.55;;;10.40;;
8050;SDS011;4068;42.158;24.732;2023-05-07T04:57:19;14.98;;;8.93;;
8050;SDS011;4068;42.158;24.732;2023-05-07T04:59:45;10.68;;;8.70;;
8050;SDS011;4068;42.158;24.732;2023-05-07T05:02:10;12.32;;;9.60;;
8050;SDS011;4068;42.158;24.732;2023-05-07T05:04:36;13.35;;;9.30;;
8050;SDS011;4068;42.158;24.732;2023-05-07T05:07:02;10.40;;;9.10;;
8050;SDS011;4068;42.158;24.732;2023-05-07T05:09:29;15.85;;;10.20;;
8050;SDS011;4068;42.158;24.732;2023-05-07T05:11:55;11.07;;;8.98;;
8050;SDS011;4068;42.158;24.732;2023-05-07T05:14:20;13.23;;;9.40;;
8050;SDS011;4068;42.158;24.732;2023-05-07T05:16:45;11.80;;;9.30;;
8050;SDS011;4068;42.158;24.732;2023-05-07T05:19:11;11.45;;;8.95;;
8050;SDS011;4068;42.158;24.732;2023-05-07T05:21:36;10.60;;;8.50;;
8050;SDS011;4068;42.158;24.732;2023-05-07T05:24:02;13.07;;;8.88;;
8050;SDS011;4068;42.158;24.732;2023-05-07T05:26:27;11.65;;;8.85;;
8050;SDS011;4068;42.158;24.732;2023-05-07T05:28:53;16.50;;;8.50;;
8050;SDS011;4068;42.158;24.732;2023-05-07T05:31:18;12.18;;;8.93;;
8050;SDS011;4068;42.158;24.732;2023-05-07T05:33:43;14.30;;;8.27;;
8050;SDS011;4068;42.158;24.732;2023-05-07T05:36:09;14.38;;;8.50;;
8050;SDS011;4068;42.158;24.732;2023-05-07T05:38:35;11.75;;;8.05;;
8050;SDS011;4068;42.158;24.732;2023-05-07T05:41:01;13.52;;;8.68;;
8050;SDS011;4068;42.158;24.732;2023-05-07T05:43:27;12.48;;;8.38;;
8050;SDS011;4068;42.158;24.732;2023-05-07T05:45:52;11.75;;;7.65;;
8050;SDS011;4068;42.158;24.732;2023-05-07T05:48:17;9.35;;;7.65;;
8050;SDS011;4068;42.158;24.732;2023-05-07T05:50:43;12.13;;;8.35;;
8050;SDS011;4068;42.158;24.732;2023-05-07T05:53:08;8.80;;;7.55;;
8050;SDS011;4068;42.158;24.732;2023-05-07T05:55:34;14.80;;;7.95;;
8050;SDS011;4068;42.158;24.732;2023-05-07T05:58:00;10.80;;;8.18;;
8050;SDS011;4068;42.158;24.732;2023-05-07T06:00:26;10.10;;;8.00;;
8050;SDS011;4068;42.158;24.732;2023-05-07T06:02:52;10.65;;;8.18;;
8050;SDS011;4068;42.158;24.732;2023-05-07T06:05:17;9.52;;;7.65;;
8050;SDS011;4068;42.158;24.732;2023-05-07T06:07:43;12.23;;;7.18;;
8050;SDS011;4068;42.158;24.732;2023-05-07T06:10:08;11.95;;;7.38;;
8050;SDS011;4068;42.158;24.732;2023-05-07T06:12:34;10.45;;;8.13;;
8050;SDS011;4068;42.158;24.732;2023-05-07T06:14:59;10.32;;;7.65;;
8050;SDS011;4068;42.158;24.732;2023-05-07T06:17:25;14.70;;;8.05;;
8050;SDS011;4068;42.158;24.732;2023-05-07T06:19:50;11.00;;;7.43;;
8050;SDS011;4068;42.158;24.732;2023-05-07T06:22:16;10.43;;;7.95;;
8050;SDS011;4068;42.158;24.732;2023-05-07T06:24:41;12.95;;;8.15;;
8050;SDS011;4068;42.158;24.732;2023-05-07T06:27:07;8.48;;;7.57;;
8050;SDS011;4068;42.158;24.732;2023-05-07T06:29:32;10.73;;;7.97;;
8050;SDS011;4068;42.158;24.732;2023-05-07T06:34:36;13.75;;;7.97;;
8050;SDS011;4068;42.158;24.732;2023-05-07T06:37:02;10.15;;;7.65;;
8050;SDS011;4068;42.158;24.732;2023-05-07T06:39:28;11.77;;;7.88;;
8050;SDS011;4068;42.158;24.732;2023-05-07T06:41:53;11.63;;;7.95;;
8050;SDS011;4068;42.158;24.732;2023-05-07T06:44:19;14.30;;;8.23;;
8050;SDS011;4068;42.158;24.732;2023-05-07T06:46:44;11.60;;;8.02;;
8050;SDS011;4068;42.158;24.732;2023-05-07T06:49:10;11.63;;;7.55;;
8050;SDS011;4068;42.158;24.732;2023-05-07T06:51:37;11.98;;;6.75;;
8050;SDS011;4068;42.158;24.732;2023-05-07T06:54:02;8.77;;;7.57;;
8050;SDS011;4068;42.158;24.732;2023-05-07T06:56:29;8.20;;;7.30;;
8050;SDS011;4068;42.158;24.732;2023-05-07T06:58:55;13.25;;;7.22;;
8050;SDS011;4068;42.158;24.732;2023-05-07T07:01:20;13.93;;;7.88;;
8050;SDS011;4068;42.158;24.732;2023-05-07T07:03:45;9.35;;;7.85;;
8050;SDS011;4068;42.158;24.732;2023-05-07T07:06:11;13.07;;;7.70;;
8050;SDS011;4068;42.158;24.732;2023-05-07T07:08:37;9.80;;;7.13;;
8050;SDS011;4068;42.158;24.732;2023-05-07T07:11:03;10.85;;;7.57;;
8050;SDS011;4068;42.158;24.732;2023-05-07T07:13:29;9.85;;;7.07;;
8050;SDS011;4068;42.158;24.732;2023-05-07T07:15:55;11.35;;;7.40;;
8050;SDS011;4068;42.158;24.732;2023-05-07T07:18:20;11.55;;;7.40;;
8050;SDS011;4068;42.158;24.732;2023-05-07T07:20:46;12.80;;;7.45;;
8050;SDS011;4068;42.158;24.732;2023-05-07T07:23:11;10.55;;;7.30;;
8050;SDS011;4068;42.158;24.732;2023-05-07T07:25:37;8.20;;;7.05;;
8050;SDS011;4068;42.158;24.732;2023-05-07T07:28:02;15.13;;;8.07;;
8050;SDS011;4068;42.158;24.732;2023-05-07T07:30:27;9.05;;;7.05;;
8050;SDS011;4068;42.158;24.732;2023-05-07T07:32:53;9.00;;;7.43;;
8050;SDS011;4068;42.158;24.732;2023-05-07T07:35:20;9.30;;;6.95;;
8050;SDS011;4068;42.158;24.732;2023-05-07T07:37:45;11.23;;;7.38;;
8050;SDS011;4068;42.158;24.732;2023-05-07T07:40:12;11.15;;;7.15;;
8050;SDS011;4068;42.158;24.732;2023-05-07T07:42:37;8.95;;;7.03;;
8050;SDS011;4068;42.158;24.732;2023-05-07T07:45:03;11.95;;;7.20;;
8050;SDS011;4068;42.158;24.732;2023-05-07T07:47:29;10.20;;;7.35;;
8050;SDS011;4068;42.158;24.732;2023-05-07T07:49:54;10.15;;;7.78;;
8050;SDS011;4068;42.158;24.732;2023-05-07T07:52:20;15.55;;;7.70;;
8050;SDS011;4068;42.158;24.732;2023-05-07T07:54:46;11.35;;;6.97;;
8050;SDS011;4068;42.158;24.732;2023-05-07T07:57:11;9.27;;;6.78;;
8050;SDS011;4068;42.158;24.732;2023-05-07T07:59:36;12.93;;;6.63;;
8050;SDS011;4068;42.158;24.732;2023-05-07T08:02:02;7.32;;;6.35;;
8050;SDS011;4068;42.158;24.732;2023-05-07T08:04:27;8.00;;;6.10;;
8050;SDS011;4068;42.158;24.732;2023-05-07T08:06:53;9.18;;;6.55;;
8050;SDS011;4068;42.158;24.732;2023-05-07T08:09:19;8.85;;;6.25;;
8050;SDS011;4068;42.158;24.732;2023-05-07T08:11:44;9.45;;;7.00;;
8050;SDS011;4068;42.158;24.732;2023-05-07T08:14:10;14.10;;;7.57;;
8050;SDS011;4068;42.158;24.732;2023-05-07T08:16:36;9.73;;;7.65;;
8050;SDS011;4068;42.158;24.732;2023-05-07T08:19:02;8.77;;;6.93;;
8050;SDS011;4068;42.158;24.732;2023-05-07T08:21:27;11.82;;;6.82;;
8050;SDS011;4068;42.158;24.732;2023-05-07T08:23:53;7.95;;;6.50;;
8050;SDS011;4068;42.158;24.732;2023-05-07T08:26:18;7.93;;;6.10;;
8050;SDS011;4068;42.158;24.732;2023-05-07T08:28:44;11.10;;;6.45;;
8050;SDS011;4068;42.158;24.732;2023-05-07T08:31:09;6.85;;;5.90;;
8050;SDS011;4068;42.158;24.732;2023-05-07T08:33:34;9.80;;;6.25;;
8050;SDS011;4068;42.158;24.732;2023-05-07T08:36:00;8.25;;;5.47;;
8050;SDS011;4068;42.158;24.732;2023-05-07T08:38:25;7.82;;;5.38;;
8050;SDS011;4068;42.158;24.732;2023-05-07T08:40:52;6.40;;;5.47;;
8050;SDS011;4068;42.158;24.732;2023-05-07T08:43:17;8.30;;;5.13;;
8050;SDS011;4068;42.158;24.732;2023-05-07T08:45:44;8.35;;;5.55;;
8050;SDS011;4068;42.158;24.732;2023-05-07T08:48:15;7.47;;;5.25;;
8050;SDS011;4068;42.158;24.732;2023-05-07T08:50:41;7.63;;;5.05;;
8050;SDS011;4068;42.158;24.732;2023-05-07T08:53:07;8.80;;;5.00;;
8050;SDS011;4068;42.158;24.732;2023-05-07T08:55:33;8.75;;;4.45;;
8050;SDS011;4068;42.158;24.732;2023-05-07T08:57:58;9.65;;;4.55;;
8050;SDS011;4068;42.158;24.732;2023-05-07T09:00:24;4.90;;;4.40;;
8050;SDS011;4068;42.158;24.732;2023-05-07T09:02:50;5.53;;;4.25;;
8050;SDS011;4068;42.158;24.732;2023-05-07T09:05:15;9.10;;;4.25;;
8050;SDS011;4068;42.158;24.732;2023-05-07T09:07:41;5.20;;;4.38;;
8050;SDS011;4068;42.158;24.732;2023-05-07T09:10:06;6.22;;;4.70;;
8050;SDS011;4068;42.158;24.732;2023-05-07T09:12:32;4.20;;;3.80;;
8050;SDS011;4068;42.158;24.732;2023-05-07T09:15:00;4.95;;;3.92;;
8050;SDS011;4068;42.158;24.732;2023-05-07T09:17:25;6.50;;;4.40;;
8050;SDS011;4068;42.158;24.732;2023-05-07T09:19:51;6.35;;;4.10;;
8050;SDS011;4068;42.158;24.732;2023-05-07T09:22:18;4.00;;;3.60;;
8050;SDS011;4068;42.158;24.732;2023-05-07T09:24:49;5.50;;;4.22;;
8050;SDS011;4068;42.158;24.732;2023-05-07T09:27:16;6.32;;;4.05;;
8050;SDS011;4068;42.158;24.732;2023-05-07T09:29:43;6.47;;;4.10;;
8050;SDS011;4068;42.158;24.732;2023-05-07T09:32:09;8.05;;;4.20;;
8050;SDS011;4068;42.158;24.732;2023-05-07T09:34:34;7.18;;;3.60;;
8050;SDS011;4068;42.158;24.732;2023-05-07T09:37:01;4.28;;;3.70;;
8050;SDS011;4068;42.158;24.732;2023-05-07T09:39:47;3.97;;;3.50;;
8050;SDS011;4068;42.158;24.732;2023-05-07T09:42:13;5.75;;;3.47;;
8050;SDS011;4068;42.158;24.732;2023-05-07T09:44:43;4.75;;;3.65;;
8050;SDS011;4068;42.158;24.732;2023-05-07T09:47:08;4.60;;;3.58;;
8050;SDS011;4068;42.158;24.732;2023-05-07T09:49:37;5.10;;;4.13;;
8050;SDS011;4068;42.158;24.732;2023-05-07T09:52:07;7.68;;;4.03;;
8050;SDS011;4068;42.158;24.732;2023-05-07T09:54:34;7.22;;;4.25;;
8050;SDS011;4068;42.158;24.732;2023-05-07T09:57:03;5.47;;;4.20;;
8050;SDS011;4068;42.158;24.732;2023-05-07T09:59:31;5.18;;;4.20;;
8050;SDS011;4068;42.158;24.732;2023-05-07T10:01:58;5.65;;;3.72;;
8050;SDS011;4068;42.158;24.732;2023-05-07T10:04:26;5.28;;;3.95;;
8050;SDS011;4068;42.158;24.732;2023-05-07T10:06:52;7.80;;;4.45;;
8050;SDS011;4068;42.158;24.732;2023-05-07T10:09:19;5.40;;;3.83;;
8050;SDS011;4068;42.158;24.732;2023-05-07T10:11:45;5.03;;;3.80;;
8050;SDS011;4068;42.158;24.732;2023-05-07T10:14:11;4.47;;;3.55;;
8050;SDS011;4068;42.158;24.732;2023-05-07T10:16:37;7.03;;;3.40;;
8050;SDS011;4068;42.158;24.732;2023-05-07T10:19:03;6.30;;;3.95;;
8050;SDS011;4068;42.158;24.732;2023-05-07T10:21:29;4.20;;;3.70;;
8050;SDS011;4068;42.158;24.732;2023-05-07T10:26:31;4.60;;;3.63;;
8050;SDS011;4068;42.158;24.732;2023-05-07T10:28:59;4.20;;;3.70;;
8050;SDS011;4068;42.158;24.732;2023-05-07T10:34:17;3.67;;;3.38;;
8050;SDS011;4068;42.158;24.732;2023-05-07T10:36:50;8.30;;;4.03;;
8050;SDS011;4068;42.158;24.732;2023-05-07T10:39:17;5.75;;;3.33;;
8050;SDS011;4068;42.158;24.732;2023-05-07T10:41:45;4.82;;;3.75;;
8050;SDS011;4068;42.158;24.732;2023-05-07T10:44:11;7.32;;;4.38;;
8050;SDS011;4068;42.158;24.732;2023-05-07T10:46:36;4.85;;;3.30;;
8050;SDS011;4068;42.158;24.732;2023-05-07T10:51:28;4.55;;;3.40;;
8050;SDS011;4068;42.158;24.732;2023-05-07T10:56:37;7.03;;;4.03;;
8050;SDS011;4068;42.158;24.732;2023-05-07T11:04:24;7.38;;;3.65;;
8050;SDS011;4068;42.158;24.732;2023-05-07T11:15:05;5.93;;;3.50;;
8050;SDS011;4068;42.158;24.732;2023-05-07T11:17:35;4.45;;;3.55;;
8050;SDS011;4068;42.158;24.732;2023-05-07T11:20:21;5.95;;;3.72;;
8050;SDS011;4068;42.158;24.732;2023-05-07T11:26:03;8.57;;;3.10;;
8050;SDS011;4068;42.158;24.732;2023-05-07T11:28:30;8.18;;;3.33;;
8050;SDS011;4068;42.158;24.732;2023-05-07T11:31:00;5.57;;;3.72;;
8050;SDS011;4068;42.158;24.732;2023-05-07T11:33:26;6.20;;;3.67;;
8050;SDS011;4068;42.158;24.732;2023-05-07T11:35:55;8.50;;;3.78;;
8050;SDS011;4068;42.158;24.732;2023-05-07T11:38:21;3.72;;;3.10;;
8050;SDS011;4068;42.158;24.732;2023-05-07T11:40:57;3.58;;;3.28;;
8050;SDS011;4068;42.158;24.732;2023-05-07T11:43:27;4.03;;;3.28;;
8050;SDS011;4068;42.158;24.732;2023-05-07T11:45:53;4.88;;;3.58;;
8050;SDS011;4068;42.158;24.732;2023-05-07T11:48:18;7.78;;;3.67;;
8050;SDS011;4068;42.158;24.732;2023-05-07T11:50:53;3.47;;;2.92;;
8050;SDS011;4068;42.158;24.732;2023-05-07T11:53:34;4.47;;;3.08;;
8050;SDS011;4068;42.158;24.732;2023-05-07T11:56:05;4.65;;;3.00;;
8050;SDS011;4068;42.158;24.732;2023-05-07T11:58:35;4.40;;;3.15;;
8050;SDS011;4068;42.158;24.732;2023-05-07T12:01:01;4.32;;;3.40;;
8050;SDS011;4068;42.158;24.732;2023-05-07T12:03:26;5.90;;;3.13;;
8050;SDS011;4068;42.158;24.732;2023-05-07T12:05:52;7.45;;;3.75;;
8050;SDS011;4068;42.158;24.732;2023-05-07T12:08:18;5.82;;;3.30;;
8050;SDS011;4068;42.158;24.732;2023-05-07T12:10:44;7.25;;;3.42;;
8050;SDS011;4068;42.158;24.732;2023-05-07T12:15:41;3.95;;;3.38;;
8050;SDS011;4068;42.158;24.732;2023-05-07T12:18:07;3.97;;;3.58;;
8050;SDS011;4068;42.158;24.732;2023-05-07T12:20:34;6.03;;;3.40;;
8050;SDS011;4068;42.158;24.732;2023-05-07T12:23:00;3.83;;;3.40;;
8050;SDS011;4068;42.158;24.732;2023-05-07T12:25:26;6.40;;;3.97;;
8050;SDS011;4068;42.158;24.732;2023-05-07T12:27:54;5.50;;;3.38;;
8050;SDS011;4068;42.158;24.732;2023-05-07T12:30:21;5.35;;;3.30;;
8050;SDS011;4068;42.158;24.732;2023-05-07T12:32:46;3.40;;;3.10;;
8050;SDS011;4068;42.158;24.732;2023-05-07T12:35:11;4.05;;;3.67;;
8050;SDS011;4068;42.158;24.732;2023-05-07T12:37:37;4.53;;;3.53;;
8050;SDS011;4068;42.158;24.732;2023-05-07T12:40:11;6.25;;;3.70;;
8050;SDS011;4068;42.158;24.732;2023-05-07T12:42:38;4.55;;;3.72;;
8050;SDS011;4068;42.158;24.732;2023-05-07T12:45:11;3.67;;;3.38;;
8050;SDS011;4068;42.158;24.732;2023-05-07T12:47:46;6.35;;;3.67;;
8050;SDS011;4068;42.158;24.732;2023-05-07T12:50:12;3.95;;;3.55;;
8050;SDS011;4068;42.158;24.732;2023-05-07T12:52:39;5.70;;;3.67;;
8050;SDS011;4068;42.158;24.732;2023-05-07T12:55:05;3.97;;;3.60;;
8050;SDS011;4068;42.158;24.732;2023-05-07T12:57:37;3.95;;;3.55;;
8050;SDS011;4068;42.158;24.732;2023-05-07T13:00:07;7.32;;;3.85;;
8050;SDS011;4068;42.158;24.732;2023-05-07T13:02:33;6.55;;;3.60;;
8050;SDS011;4068;42.158;24.732;2023-05-07T13:05:00;5.22;;;3.95;;
8050;SDS011;4068;42.158;24.732;2023-05-07T13:07:26;4.72;;;3.42;;
8050;SDS011;4068;42.158;24.732;2023-05-07T13:09:51;4.57;;;3.60;;
8050;SDS011;4068;42.158;24.732;2023-05-07T13:12:16;5.78;;;3.85;;
8050;SDS011;4068;42.158;24.732;2023-05-07T13:14:42;5.32;;;4.70;;
8050;SDS011;4068;42.158;24.732;2023-05-07T13:17:07;3.15;;;2.85;;
8050;SDS011;4068;42.158;24.732;2023-05-07T13:19:33;3.20;;;2.90;;
8050;SDS011;4068;42.158;24.732;2023-05-07T13:21:58;4.00;;;3.60;;
8050;SDS011;4068;42.158;24.732;2023-05-07T13:24:23;7.20;;;3.60;;
8050;SDS011;4068;42.158;24.732;2023-05-07T13:26:49;5.13;;;3.92;;
8050;SDS011;4068;42.158;24.732;2023-05-07T13:29:15;5.00;;;4.40;;
8050;SDS011;4068;42.158;24.732;2023-05-07T13:31:40;6.30;;;3.95;;
8050;SDS011;4068;42.158;24.732;2023-05-07T13:34:08;4.20;;;3.15;;
8050;SDS011;4068;42.158;24.732;2023-05-07T13:36:34;3.88;;;2.83;;
8050;SDS011;4068;42.158;24.732;2023-05-07T13:39:02;3.97;;;3.50;;
8050;SDS011;4068;42.158;24.732;2023-05-07T13:41:28;6.18;;;3.05;;
8050;SDS011;4068;42.158;24.732;2023-05-07T13:43:54;4.65;;;2.90;;
8050;SDS011;4068;42.158;24.732;2023-05-07T13:46:21;10.60;;;2.85;;
8050;SDS011;4068;42.158;24.732;2023-05-07T13:48:46;4.60;;;2.67;;
8050;SDS011;4068;42.158;24.732;2023-05-07T13:51:12;4.07;;;2.97;;
8050;SDS011;4068;42.158;24.732;2023-05-07T13:53:37;5.18;;;2.97;;
8050;SDS011;4068;42.158;24.732;2023-05-07T13:56:03;9.93;;;3.35;;
8050;SDS011;4068;42.158;24.732;2023-05-07T13:58:29;5.13;;;2.80;;
8050;SDS011;4068;42.158;24.732;2023-05-07T14:00:55;4.22;;;2.80;;
8050;SDS011;4068;42.158;24.732;2023-05-07T14:03:20;3.05;;;2.53;;
8050;SDS011;4068;42.158;24.732;2023-05-07T14:05:46;4.05;;;2.50;;
8050;SDS011;4068;42.158;24.732;2023-05-07T14:08:11;3.28;;;2.80;;
8050;SDS011;4068;42.158;24.732;2023-05-07T14:10:38;3.42;;;2.78;;
8050;SDS011;4068;42.158;24.732;2023-05-07T14:13:04;4.18;;;2.88;;
8050;SDS011;4068;42.158;24.732;2023-05-07T14:15:30;3.42;;;3.03;;
8050;SDS011;4068;42.158;24.732;2023-05-07T14:17:57;4.25;;;2.83;;
8050;SDS011;4068;42.158;24.732;2023-05-07T14:20:24;5.18;;;3.40;;
8050;SDS011;4068;42.158;24.732;2023-05-07T14:22:50;6.32;;;3.05;;
8050;SDS011;4068;42.158;24.732;2023-05-07T14:25:15;3.05;;;2.70;;
8050;SDS011;4068;42.158;24.732;2023-05-07T14:27:41;5.45;;;3.28;;
8050;SDS011;4068;42.158;24.732;2023-05-07T14:30:06;3.00;;;2.80;;
8050;SDS011;4068;42.158;24.732;2023-05-07T14:32:32;5.43;;;3.00;;
8050;SDS011;4068;42.158;24.732;2023-05-07T14:34:58;3.53;;;2.65;;
8050;SDS011;4068;42.158;24.732;2023-05-07T14:37:23;5.03;;;3.00;;
8050;SDS011;4068;42.158;24.732;2023-05-07T14:39:49;3.13;;;2.70;;
8050;SDS011;4068;42.158;24.732;2023-05-07T14:42:14;5.35;;;3.20;;
8050;SDS011;4068;42.158;24.732;2023-05-07T14:44:40;3.33;;;2.63;;
8050;SDS011;4068;42.158;24.732;2023-05-07T14:47:06;4.10;;;2.65;;
8050;SDS011;4068;42.158;24.732;2023-05-07T14:49:32;3.75;;;2.13;;
8050;SDS011;4068;42.158;24.732;2023-05-07T14:51:58;4.95;;;2.75;;
8050;SDS011;4068;42.158;24.732;2023-05-07T14:54:26;2.80;;;2.53;;
8050;SDS011;4068;42.158;24.732;2023-05-07T14:56:52;8.52;;;4.63;;
8050;SDS011;4068;42.158;24.732;2023-05-07T14:59:18;5.03;;;3.10;;
8050;SDS011;4068;42.158;24.732;2023-05-07T15:01:46;3.25;;;2.55;;
8050;SDS011;4068;42.158;24.732;2023-05-07T15:04:14;3.50;;;2.45;;
8050;SDS011;4068;42.158;24.732;2023-05-07T15:06:40;5.97;;;3.05;;
8050;SDS011;4068;42.158;24.732;2023-05-07T15:09:05;6.05;;;2.65;;
8050;SDS011;4068;42.158;24.732;2023-05-07T15:11:31;5.32;;;2.72;;
8050;SDS011;4068;42.158;24.732;2023-05-07T15:13:56;3.40;;;3.00;;
8050;SDS011;4068;42.158;24.732;2023-05-07T15:16:21;3.53;;;2.83;;
8050;SDS011;4068;42.158;24.732;2023-05-07T15:18:48;5.10;;;2.78;;